createdAt,value
2019-03-21T00:01:19.532Z,161.87
2019-03-21T00:03:51.162Z,159.80
2019-03-21T00:06:21.019Z,174.03
2019-03-21T00:08:51.298Z,176.57
2019-03-21T00:11:55.918Z,187.10
2019-03-21T00:15:33.908Z,193.33
2019-03-21T00:18:06.258Z,209.77
2019-03-21T00:20:36.104Z,203.90
2019-03-21T00:23:06.019Z,203.10
2019-03-21T00:25:36.185Z,198.40
2019-03-21T00:28:06.211Z,200.77
2019-03-21T00:30:36.101Z,199.23
2019-03-21T00:33:06.186Z,211.80
2019-03-21T00:35:38.501Z,210.43
2019-03-21T00:38:08.172Z,209.87
2019-03-21T00:40:40.430Z,203.47
2019-03-21T00:43:11.954Z,214.13
2019-03-21T00:45:43.191Z,202.77
2019-03-21T00:48:14.929Z,205.20
2019-03-21T00:50:44.862Z,199.87
2019-03-21T00:53:14.779Z,192.97
2019-03-21T00:55:45.657Z,194.57
2019-03-21T00:58:15.596Z,190.37
2019-03-21T01:00:48.228Z,189.03
2019-03-21T01:03:18.187Z,186.73
2019-03-21T01:05:48.234Z,183.53
2019-03-21T01:08:18.183Z,176.07
2019-03-21T01:10:48.895Z,169.93
2019-03-21T01:13:18.807Z,154.63
2019-03-21T01:15:48.654Z,151.13
2019-03-21T01:18:18.482Z,151.33
2019-03-21T01:20:48.431Z,143.20
2019-03-21T01:23:18.438Z,149.43
2019-03-21T01:25:50.344Z,146.87
2019-03-21T01:28:20.253Z,146.90
2019-03-21T01:30:50.143Z,159.03
2019-03-21T01:33:20.128Z,150.30
2019-03-21T01:35:49.975Z,167.13
2019-03-21T01:38:19.795Z,170.00
2019-03-21T01:40:50.463Z,170.67
2019-03-21T01:43:20.817Z,179.87
2019-03-21T01:45:50.786Z,183.57
2019-03-21T01:48:20.702Z,185.40
2019-03-21T01:50:50.512Z,184.30
2019-03-21T01:53:20.454Z,201.73
2019-03-21T01:55:50.359Z,202.00
2019-03-21T01:58:20.392Z,204.67
2019-03-21T02:00:50.611Z,203.80
2019-03-21T02:03:20.731Z,198.50
2019-03-21T02:05:50.631Z,201.43
2019-03-21T02:08:20.588Z,194.23
2019-03-21T02:10:50.541Z,209.97
2019-03-21T02:13:20.502Z,204.57
2019-03-21T02:15:50.878Z,196.97
2019-03-21T02:18:20.836Z,204.20
2019-03-21T02:20:50.714Z,213.03
2019-03-21T02:23:20.539Z,211.03
2019-03-21T02:25:50.521Z,192.20
2019-03-21T02:28:20.284Z,203.60
2019-03-21T02:30:50.433Z,199.80
2019-03-21T02:33:23.779Z,195.43
2019-03-21T02:35:53.718Z,190.67
2019-03-21T02:38:23.669Z,183.97
2019-03-21T02:40:53.954Z,181.50
2019-03-21T02:43:23.878Z,181.27
2019-03-21T02:45:53.827Z,192.27
2019-03-21T02:48:23.726Z,177.47
2019-03-21T02:50:53.584Z,181.73
2019-03-21T02:53:23.434Z,184.27
2019-03-21T02:55:53.582Z,173.03
2019-03-21T02:58:23.660Z,177.20
2019-03-21T03:00:53.689Z,177.40
2019-03-21T03:03:23.666Z,179.70
2019-03-21T03:05:53.749Z,175.97
2019-03-21T03:08:23.801Z,176.43
2019-03-21T03:10:54.658Z,172.67
2019-03-21T03:13:24.883Z,181.57
2019-03-21T03:15:54.830Z,184.40
2019-03-21T03:18:24.807Z,171.13
2019-03-21T03:20:54.723Z,177.87
2019-03-21T03:23:24.656Z,168.17
2019-03-21T03:25:54.623Z,173.77
2019-03-21T03:28:25.940Z,171.63
2019-03-21T03:30:56.685Z,166.83
2019-03-21T03:33:26.661Z,165.67
2019-03-21T03:35:56.700Z,164.30
2019-03-21T03:38:26.671Z,169.03
2019-03-21T03:40:58.930Z,168.70
2019-03-21T03:43:28.943Z,180.93
2019-03-21T03:45:58.975Z,194.80
2019-03-21T03:48:28.878Z,210.20
2019-03-21T03:50:58.872Z,190.07
2019-03-21T03:53:28.860Z,190.63
2019-03-21T03:55:58.805Z,204.23
2019-03-21T03:58:28.726Z,205.23
2019-03-21T04:00:59.044Z,209.10
2019-03-21T04:03:29.046Z,210.53
2019-03-21T04:05:59.078Z,217.50
2019-03-21T04:08:28.997Z,222.40
2019-03-21T04:10:59.342Z,231.53
2019-03-21T04:13:29.414Z,220.43
2019-03-21T04:15:59.408Z,200.97
2019-03-21T04:18:29.292Z,209.33
2019-03-21T04:21:00.071Z,198.17
2019-03-21T04:23:29.923Z,197.13
2019-03-21T04:26:03.592Z,193.73
2019-03-21T04:28:33.626Z,182.97
2019-03-21T04:31:03.559Z,190.57
2019-03-21T04:33:33.589Z,185.53
2019-03-21T04:36:03.767Z,181.77
2019-03-21T04:38:33.734Z,181.27
2019-03-21T04:41:03.642Z,186.17
2019-03-21T04:43:33.674Z,175.17
2019-03-21T04:46:04.013Z,180.37
2019-03-21T04:48:34.110Z,173.50
2019-03-21T04:51:04.179Z,172.97
2019-03-21T04:53:34.172Z,166.80
2019-03-21T04:56:04.031Z,169.53
2019-03-21T04:58:33.962Z,174.67
2019-03-21T05:01:03.902Z,174.10
2019-03-21T05:03:33.979Z,179.67
2019-03-21T05:06:03.971Z,171.87
2019-03-21T05:08:34.011Z,182.43
2019-03-21T05:11:03.881Z,181.00
2019-03-21T05:13:34.105Z,167.00
2019-03-21T05:16:14.367Z,163.27
2019-03-21T05:18:37.787Z,154.27
2019-03-21T05:21:08.355Z,160.03
2019-03-21T05:23:38.325Z,143.60
2019-03-21T05:26:08.270Z,142.87
2019-03-21T05:28:38.258Z,132.03
2019-03-21T05:31:12.644Z,138.47
2019-03-21T05:33:42.590Z,139.40
2019-03-21T05:36:12.518Z,130.73
2019-03-21T05:38:42.604Z,132.60
2019-03-21T05:41:13.484Z,134.67
2019-03-21T05:43:53.023Z,121.83
2019-03-21T05:46:26.906Z,116.23
2019-03-21T05:48:54.584Z,119.87
2019-03-21T05:51:24.469Z,120.53
2019-03-21T05:53:54.424Z,111.10
2019-03-21T05:56:24.430Z,105.30
2019-03-21T05:58:54.477Z,98.93
2019-03-21T06:01:24.723Z,93.60
2019-03-21T06:03:54.623Z,96.93
2019-03-21T06:06:38.212Z,95.57
2019-03-21T06:09:10.067Z,90.87
2019-03-21T06:11:41.313Z,100.27
2019-03-21T06:14:11.263Z,103.67
2019-03-21T06:16:41.098Z,95.53
2019-03-21T06:19:31.367Z,101.73
2019-03-21T06:22:27.719Z,95.50
2019-03-21T06:25:35.350Z,88.07
2019-03-21T06:28:05.360Z,87.47
2019-03-21T06:30:35.407Z,77.47
2019-03-21T06:33:05.269Z,79.70
2019-03-21T06:35:35.376Z,76.17
2019-03-21T06:38:05.290Z,72.50
2019-03-21T06:40:36.150Z,81.30
2019-03-21T06:43:06.892Z,77.43
2019-03-21T06:45:47.334Z,81.37
2019-03-21T06:48:08.343Z,82.90
2019-03-21T06:50:38.268Z,86.03
2019-03-21T06:53:08.096Z,82.63
2019-03-21T06:55:38.175Z,81.87
2019-03-21T06:58:08.143Z,93.97
2019-03-21T07:00:38.165Z,85.57
2019-03-21T07:03:08.138Z,80.60
2019-03-21T07:05:38.184Z,75.63
2019-03-21T07:08:08.363Z,78.53
2019-03-21T07:10:38.291Z,73.23
2019-03-21T07:13:08.438Z,82.83
2019-03-21T07:15:38.505Z,75.60
2019-03-21T07:18:08.351Z,69.87
2019-03-21T07:20:38.298Z,61.70
2019-03-21T07:23:08.336Z,64.07
2019-03-21T07:25:38.408Z,60.50
2019-03-21T07:28:08.421Z,56.77
2019-03-21T07:30:38.243Z,63.00
2019-03-21T07:33:08.191Z,57.07
2019-03-21T07:35:38.062Z,56.10
2019-03-21T07:38:08.083Z,58.40
2019-03-21T07:40:37.938Z,52.33
2019-03-21T07:43:07.807Z,59.80
2019-03-21T07:45:39.121Z,59.77
2019-03-21T07:48:09.015Z,56.90
2019-03-21T07:50:39.095Z,61.40
2019-03-21T07:53:09.147Z,61.37
2019-03-21T07:55:38.995Z,60.67
2019-03-21T07:58:08.959Z,62.00
2019-03-21T08:00:39.015Z,60.40
2019-03-21T08:03:08.916Z,60.40
2019-03-21T08:05:40.674Z,59.57
2019-03-21T08:08:10.407Z,58.60
2019-03-21T08:10:40.351Z,65.57
2019-03-21T08:13:10.251Z,59.97
2019-03-21T08:15:40.135Z,63.33
2019-03-21T08:18:10.050Z,61.57
2019-03-21T08:20:40.015Z,63.43
2019-03-21T08:23:10.003Z,69.73
2019-03-21T08:25:40.315Z,63.90
2019-03-21T08:28:10.273Z,62.93
2019-03-21T08:31:00.383Z,62.13
2019-03-21T08:33:30.238Z,60.40
2019-03-21T08:36:00.127Z,57.93
2019-03-21T08:38:30.027Z,52.90
2019-03-21T08:41:00.059Z,58.10
2019-03-21T08:43:29.963Z,55.73
2019-03-21T08:46:00.357Z,58.70
2019-03-21T08:48:30.311Z,58.97
2019-03-21T08:51:08.088Z,60.13
2019-03-21T08:53:33.302Z,68.10
2019-03-21T08:56:03.053Z,64.20
2019-03-21T08:58:33.019Z,69.20
2019-03-21T09:01:02.865Z,70.83
2019-03-21T09:03:32.777Z,64.37
2019-03-21T09:06:02.735Z,65.43
2019-03-21T09:08:33.023Z,59.70
2019-03-21T09:11:03.085Z,53.13
2019-03-21T09:13:32.973Z,56.43
2019-03-21T09:16:03.000Z,58.40
2019-03-21T09:18:33.056Z,55.23
2019-03-21T09:21:03.052Z,58.27
2019-03-21T09:23:33.146Z,60.00
2019-03-21T09:26:03.197Z,61.97
2019-03-21T09:28:33.365Z,59.37
2019-03-21T09:31:03.315Z,57.93
2019-03-21T09:33:33.272Z,55.43
2019-03-21T09:36:03.268Z,57.37
2019-03-21T09:38:33.444Z,55.87
2019-03-21T09:41:03.574Z,60.03
2019-03-21T09:43:33.539Z,60.33
2019-03-21T09:46:03.379Z,56.53
2019-03-21T09:48:33.294Z,61.73
2019-03-21T09:51:03.280Z,51.67
2019-03-21T09:53:33.143Z,52.60
2019-03-21T09:56:03.063Z,52.23
2019-03-21T09:58:33.056Z,50.67
2019-03-21T10:01:03.122Z,51.53
2019-03-21T10:03:33.330Z,52.60
2019-03-21T10:06:03.372Z,51.53
2019-03-21T10:08:33.400Z,49.70
2019-03-21T10:11:03.416Z,48.47
2019-03-21T10:13:33.270Z,51.43
2019-03-21T10:16:03.084Z,51.20
2019-03-21T10:18:33.069Z,47.47
2019-03-21T10:21:03.050Z,50.80
2019-03-21T10:23:32.894Z,48.00
2019-03-21T10:26:02.766Z,45.23
2019-03-21T10:28:32.605Z,48.40
2019-03-21T10:31:02.469Z,46.73
2019-03-21T10:33:32.378Z,49.43
2019-03-21T10:36:02.393Z,46.83
2019-03-21T10:38:52.600Z,46.20
2019-03-21T10:41:23.994Z,51.40
2019-03-21T10:43:53.902Z,44.63
2019-03-21T10:46:23.843Z,44.53
2019-03-21T10:48:53.711Z,41.40
2019-03-21T10:51:23.646Z,45.57
2019-03-21T10:53:53.503Z,43.17
2019-03-21T10:56:23.691Z,39.60
2019-03-21T10:58:53.621Z,38.80
2019-03-21T11:01:23.529Z,38.90
2019-03-21T11:03:53.583Z,40.00
2019-03-21T11:06:23.705Z,36.67
2019-03-21T11:08:53.715Z,39.20
2019-03-21T11:11:23.670Z,39.40
2019-03-21T11:13:53.911Z,39.13
2019-03-21T11:16:23.901Z,35.33
2019-03-21T11:18:53.743Z,34.90
2019-03-21T11:21:23.825Z,34.30
2019-03-21T11:23:54.496Z,34.17
2019-03-21T11:26:24.524Z,31.63
2019-03-21T11:28:54.809Z,32.23
2019-03-21T11:31:25.252Z,34.30
2019-03-21T11:33:55.403Z,30.30
2019-03-21T11:36:25.493Z,34.00
2019-03-21T11:38:55.639Z,33.37
2019-03-21T11:41:25.676Z,35.63
2019-03-21T11:43:55.926Z,34.73
2019-03-21T11:46:25.961Z,33.67
2019-03-21T11:48:56.799Z,32.63
2019-03-21T11:51:26.882Z,33.43
2019-03-21T11:53:57.139Z,30.37
2019-03-21T11:56:27.238Z,32.00
2019-03-21T11:58:57.028Z,34.17
2019-03-21T12:01:27.089Z,30.13
2019-03-21T12:03:57.143Z,29.97
2019-03-21T12:06:27.109Z,32.70
2019-03-21T12:08:57.239Z,30.20
2019-03-21T12:11:27.426Z,33.43
2019-03-21T12:13:57.671Z,29.77
2019-03-21T12:16:27.989Z,29.00
2019-03-21T12:18:59.395Z,28.93
2019-03-21T12:21:29.824Z,28.40
2019-03-21T12:24:00.096Z,27.37
2019-03-21T12:26:30.157Z,28.13
2019-03-21T12:29:00.269Z,26.83
2019-03-21T12:31:30.204Z,32.40
2019-03-21T12:34:00.448Z,28.87
2019-03-21T12:36:30.585Z,25.43
2019-03-21T12:39:00.817Z,24.97
2019-03-21T12:41:30.882Z,27.10
2019-03-21T12:44:00.903Z,29.70
2019-03-21T12:46:30.885Z,26.90
2019-03-21T12:49:01.020Z,27.23
2019-03-21T12:51:31.584Z,28.30
2019-03-21T12:54:03.460Z,25.13
2019-03-21T12:56:33.698Z,24.67
2019-03-21T12:59:03.727Z,24.60
2019-03-21T13:01:33.886Z,26.77
2019-03-21T13:04:03.896Z,28.90
2019-03-21T13:06:33.852Z,29.20
2019-03-21T13:09:05.031Z,27.63
2019-03-21T13:11:35.032Z,29.57
2019-03-21T13:14:05.141Z,30.03
2019-03-21T13:16:37.628Z,27.03
2019-03-21T13:19:07.531Z,28.23
2019-03-21T13:21:37.494Z,28.77
2019-03-21T13:24:07.740Z,26.00
2019-03-21T13:26:37.677Z,30.40
2019-03-21T13:29:07.584Z,28.53
2019-03-21T13:31:38.645Z,28.03
2019-03-21T13:34:08.731Z,31.27
2019-03-21T13:36:38.690Z,28.00
2019-03-21T13:39:09.222Z,32.97
2019-03-21T13:41:40.873Z,28.43
2019-03-21T13:44:10.809Z,33.23
2019-03-21T13:46:40.700Z,31.63
2019-03-21T13:49:10.731Z,26.67
2019-03-21T13:51:41.039Z,30.20
2019-03-21T13:54:11.103Z,26.73
2019-03-21T13:56:41.256Z,24.07
2019-03-21T13:59:11.304Z,29.00
2019-03-21T14:01:41.297Z,25.87
2019-03-21T14:04:11.331Z,30.57
2019-03-21T14:06:41.237Z,29.80
2019-03-21T14:09:11.246Z,23.63
2019-03-21T14:11:41.440Z,25.53
2019-03-21T14:14:11.400Z,29.87
2019-03-21T14:16:41.463Z,29.17
2019-03-21T14:19:11.420Z,31.87
2019-03-21T14:21:41.409Z,33.60
2019-03-21T14:24:11.495Z,29.40
2019-03-21T14:26:41.564Z,31.67
2019-03-21T14:29:12.863Z,31.90
2019-03-21T14:31:43.095Z,32.77
2019-03-21T14:34:13.069Z,32.40
2019-03-21T14:36:42.893Z,32.93
2019-03-21T14:39:13.077Z,34.57
2019-03-21T14:41:42.959Z,35.13
2019-03-21T14:44:13.084Z,33.63
2019-03-21T14:46:43.038Z,36.30
2019-03-21T14:49:12.864Z,37.50
2019-03-21T14:51:42.974Z,32.30
2019-03-21T14:54:13.058Z,29.57
2019-03-21T14:56:44.005Z,31.93
2019-03-21T14:59:14.714Z,30.67
2019-03-21T15:01:44.790Z,32.87
2019-03-21T15:04:14.862Z,31.20
2019-03-21T15:06:46.085Z,36.13
2019-03-21T15:09:16.127Z,33.93
2019-03-21T15:11:46.265Z,34.90
2019-03-21T15:14:16.237Z,30.23
2019-03-21T15:16:46.329Z,33.33
2019-03-21T15:19:16.332Z,32.57
2019-03-21T15:21:46.272Z,32.87
2019-03-21T15:24:16.372Z,35.77
2019-03-21T15:26:46.346Z,35.83
2019-03-21T15:29:16.189Z,34.80
2019-03-21T15:31:46.130Z,33.70
2019-03-21T15:34:16.322Z,35.90
2019-03-21T15:36:46.146Z,40.00
2019-03-21T15:39:16.146Z,32.17
2019-03-21T15:41:46.083Z,36.60
2019-03-21T15:44:16.064Z,33.83
2019-03-21T15:46:46.119Z,35.57
2019-03-21T15:49:16.201Z,37.17
2019-03-21T15:51:46.267Z,37.23
2019-03-21T15:54:16.492Z,38.77
2019-03-21T15:56:46.619Z,31.90
2019-03-21T15:59:17.787Z,41.67
2019-03-21T16:01:49.902Z,39.03
2019-03-21T16:04:19.739Z,37.37
2019-03-21T16:06:49.675Z,41.73
2019-03-21T16:09:19.634Z,41.23
2019-03-21T16:11:49.802Z,42.47
2019-03-21T16:14:19.754Z,38.43
2019-03-21T16:16:49.913Z,41.97
2019-03-21T16:19:20.186Z,50.07
2019-03-21T16:21:50.451Z,55.67
2019-03-21T16:24:20.811Z,60.20
2019-03-21T16:26:52.052Z,55.07
2019-03-21T16:29:22.170Z,57.07
2019-03-21T16:31:52.346Z,46.13
2019-03-21T16:34:22.632Z,48.37
2019-03-21T16:36:53.077Z,46.73
2019-03-21T16:39:23.334Z,50.63
2019-03-21T16:41:53.540Z,51.63
2019-03-21T16:44:24.085Z,66.10
2019-03-21T16:46:54.308Z,64.27
2019-03-21T16:49:24.495Z,61.13
2019-03-21T16:51:54.624Z,63.77
2019-03-21T16:54:24.671Z,85.50
2019-03-21T16:56:54.636Z,94.47
2019-03-21T16:59:24.748Z,97.67
2019-03-21T17:01:54.830Z,95.73
2019-03-21T17:04:24.798Z,85.37
2019-03-21T17:06:55.293Z,85.87
2019-03-21T17:09:25.182Z,94.53
2019-03-21T17:11:55.374Z,90.13
2019-03-21T17:14:25.361Z,94.20
2019-03-21T17:16:55.580Z,98.67
2019-03-21T17:19:25.753Z,91.47
2019-03-21T17:21:57.589Z,99.87
2019-03-21T17:24:29.515Z,98.47
2019-03-21T17:27:01.872Z,98.20
2019-03-21T17:29:32.052Z,94.33
2019-03-21T17:32:02.053Z,100.57
2019-03-21T17:34:32.359Z,95.90
2019-03-21T17:37:02.272Z,93.57
2019-03-21T17:39:32.318Z,95.17
2019-03-21T17:42:02.385Z,95.60
2019-03-21T17:44:32.767Z,86.93
2019-03-21T17:47:02.693Z,85.47
2019-03-21T17:49:32.648Z,83.17
2019-03-21T17:52:02.836Z,73.60
2019-03-21T17:54:41.424Z,77.47
2019-03-21T17:57:04.801Z,73.83
2019-03-21T17:59:34.820Z,74.27
2019-03-21T18:02:04.732Z,78.13
2019-03-21T18:04:35.922Z,90.03
2019-03-21T18:07:06.199Z,101.87
2019-03-21T18:09:36.225Z,97.37
2019-03-21T18:12:06.161Z,99.93
2019-03-21T18:14:36.118Z,90.07
2019-03-21T18:17:06.309Z,97.23
2019-03-21T18:19:36.247Z,104.27
2019-03-21T18:22:06.383Z,114.20
2019-03-21T18:24:36.329Z,113.17
2019-03-21T18:27:06.474Z,116.43
2019-03-21T18:29:36.640Z,121.03
2019-03-21T18:32:06.588Z,119.00
2019-03-21T18:34:36.424Z,140.93
2019-03-21T18:37:06.348Z,120.00
2019-03-21T18:39:36.296Z,102.97
2019-03-21T18:42:06.323Z,108.07
2019-03-21T18:44:37.148Z,93.23
2019-03-21T18:47:07.249Z,88.60
2019-03-21T18:49:37.243Z,95.23
2019-03-21T18:52:07.512Z,112.33
2019-03-21T18:54:37.440Z,110.17
2019-03-21T18:57:07.286Z,110.27
2019-03-21T18:59:37.209Z,106.00
2019-03-21T19:02:07.097Z,98.37
2019-03-21T19:04:37.031Z,93.73
2019-03-21T19:07:07.160Z,105.87
2019-03-21T19:09:37.096Z,103.97
2019-03-21T19:12:07.373Z,106.77
2019-03-21T19:14:38.244Z,103.57
2019-03-21T19:17:08.344Z,102.40
2019-03-21T19:19:40.473Z,100.23
2019-03-21T19:22:10.612Z,93.40
2019-03-21T19:24:41.115Z,97.77
2019-03-21T19:27:11.144Z,102.00
2019-03-21T19:29:41.192Z,92.47
2019-03-21T19:32:11.226Z,91.93
2019-03-21T19:34:41.279Z,90.37
2019-03-21T19:37:11.147Z,99.23
2019-03-21T19:39:41.264Z,94.83
2019-03-21T19:42:11.305Z,103.00
2019-03-21T19:44:41.248Z,100.47
2019-03-21T19:47:22.887Z,104.33
2019-03-21T19:49:42.889Z,93.70
2019-03-21T19:52:12.837Z,101.20
2019-03-21T19:54:42.856Z,99.17
2019-03-21T19:57:12.851Z,100.73
2019-03-21T19:59:42.787Z,113.17
2019-03-21T20:02:13.067Z,138.00
2019-03-21T20:04:42.943Z,132.77
2019-03-21T20:07:12.999Z,129.27
2019-03-21T20:09:42.887Z,134.43
2019-03-21T20:12:12.851Z,126.93
2019-03-21T20:14:42.682Z,128.30
2019-03-21T20:17:12.596Z,122.87
2019-03-21T20:19:42.474Z,132.57
2019-03-21T20:22:12.657Z,137.93
2019-03-21T20:24:42.602Z,132.33
2019-03-21T20:27:12.690Z,133.13
2019-03-21T20:29:42.645Z,138.57
2019-03-21T20:32:20.600Z,136.70
2019-03-21T20:34:44.482Z,149.90
2019-03-21T20:37:14.464Z,155.87
2019-03-21T20:39:44.368Z,158.67
2019-03-21T20:42:14.149Z,145.17
2019-03-21T20:44:44.238Z,163.13
2019-03-21T20:47:14.410Z,157.00
2019-03-21T20:49:44.503Z,160.20
2019-03-21T20:52:14.424Z,157.87
2019-03-21T20:54:44.438Z,164.70
2019-03-21T20:57:14.325Z,160.50
2019-03-21T20:59:44.305Z,164.57
2019-03-21T21:02:14.486Z,145.97
2019-03-21T21:04:44.346Z,132.20
2019-03-21T21:07:14.319Z,113.27
2019-03-21T21:09:44.348Z,116.00
2019-03-21T21:12:14.622Z,111.10
2019-03-21T21:14:44.595Z,119.37
2019-03-21T21:17:14.521Z,148.47
2019-03-21T21:19:44.501Z,155.50
2019-03-21T21:22:14.429Z,154.27
2019-03-21T21:24:45.084Z,142.60
2019-03-21T21:27:14.999Z,150.50
2019-03-21T21:29:45.732Z,150.80
2019-03-21T21:32:16.009Z,151.47
2019-03-21T21:34:46.053Z,156.60
2019-03-21T21:37:16.188Z,159.60
2019-03-21T21:39:46.324Z,152.03
2019-03-21T21:42:16.457Z,155.33
2019-03-21T21:44:46.932Z,148.73
2019-03-21T21:47:16.868Z,159.43
2019-03-21T21:49:46.884Z,157.30
2019-03-21T21:52:16.726Z,161.87
2019-03-21T21:54:49.179Z,159.07
2019-03-21T21:57:20.815Z,155.10
2019-03-21T21:59:52.892Z,147.23
2019-03-21T22:02:22.570Z,138.37
2019-03-21T22:05:00.980Z,144.77
2019-03-21T22:07:31.158Z,143.50
2019-03-21T22:10:01.019Z,139.13
2019-03-21T22:12:31.073Z,137.47
2019-03-21T22:15:01.439Z,132.73
2019-03-21T22:17:31.354Z,132.70
2019-03-21T22:20:01.273Z,134.07
2019-03-21T22:22:31.273Z,143.07
2019-03-21T22:25:01.216Z,130.30
2019-03-21T22:27:31.245Z,137.27
2019-03-21T22:30:01.096Z,143.03
2019-03-21T22:32:30.999Z,136.27
2019-03-21T22:35:00.830Z,144.43
2019-03-21T22:37:30.733Z,145.93
2019-03-21T22:40:00.890Z,145.77
2019-03-21T22:42:30.796Z,135.77
2019-03-21T22:45:00.722Z,136.53
2019-03-21T22:47:30.803Z,135.63
2019-03-21T22:50:00.754Z,128.03
2019-03-21T22:52:30.825Z,131.93
2019-03-21T22:55:00.789Z,141.50
2019-03-21T22:57:30.689Z,151.10
2019-03-21T23:00:00.786Z,153.80
2019-03-21T23:02:31.072Z,148.87
2019-03-21T23:05:01.050Z,154.53
2019-03-21T23:07:30.899Z,160.63
2019-03-21T23:10:00.851Z,162.43
2019-03-21T23:12:30.703Z,154.27
2019-03-21T23:15:00.523Z,161.73
2019-03-21T23:17:30.475Z,163.03
2019-03-21T23:20:00.415Z,165.47
2019-03-21T23:22:30.375Z,171.83
2019-03-21T23:25:00.176Z,170.77
2019-03-21T23:27:30.147Z,163.53
2019-03-21T23:30:00.037Z,166.17
2019-03-21T23:32:29.990Z,173.33
2019-03-21T23:34:59.818Z,172.50
2019-03-21T23:37:29.661Z,160.10
2019-03-21T23:39:59.691Z,167.60
2019-03-21T23:42:29.625Z,166.20
2019-03-21T23:44:59.711Z,158.37
2019-03-21T23:47:29.597Z,162.87
2019-03-21T23:49:59.613Z,162.77
2019-03-21T23:52:29.658Z,158.37
2019-03-21T23:54:59.558Z,160.30
2019-03-21T23:57:29.430Z,158.40
2019-03-21T23:59:59.292Z,157.63
